createdAt,value
2022-12-13T00:00:52.134Z,-2.34
2022-12-13T00:03:24.100Z,-2.29
2022-12-13T00:05:56.056Z,-2.21
2022-12-13T00:08:28.027Z,-2.17
2022-12-13T00:11:06.597Z,-2.24
2022-12-13T00:13:39.272Z,-2.17
2022-12-13T00:16:18.803Z,-2.11
2022-12-13T00:18:55.675Z,-2.12
2022-12-13T00:21:31.186Z,-2.17
2022-12-13T00:24:03.355Z,-2.14
2022-12-13T00:26:36.059Z,-2.17
2022-12-13T00:29:09.119Z,-2.16
2022-12-13T00:32:00.388Z,-2.27
2022-12-13T00:34:32.988Z,-2.26
2022-12-13T00:37:05.009Z,-2.25
2022-12-13T00:39:37.054Z,-2.21
2022-12-13T00:42:09.151Z,-2.16
2022-12-13T00:44:41.087Z,-2.21
2022-12-13T00:47:13.050Z,-2.27
2022-12-13T00:49:44.993Z,-2.30
2022-12-13T00:52:17.029Z,-2.33
2022-12-13T00:54:48.967Z,-2.32
2022-12-13T00:57:21.337Z,-2.33
2022-12-13T00:59:53.361Z,-2.37
2022-12-13T01:02:25.456Z,-2.35
2022-12-13T01:04:57.368Z,-2.32
2022-12-13T01:07:29.326Z,-2.29
2022-12-13T01:10:01.388Z,-2.24
2022-12-13T01:12:35.074Z,-2.19
2022-12-13T01:15:07.935Z,-2.14
2022-12-13T01:17:39.867Z,-2.12
2022-12-13T01:20:12.247Z,-2.10
2022-12-13T01:22:44.198Z,-2.11
2022-12-13T01:25:16.529Z,-2.09
2022-12-13T01:27:48.671Z,-2.09
2022-12-13T01:30:20.612Z,-2.11
2022-12-13T01:32:52.753Z,-2.14
2022-12-13T01:35:24.765Z,-2.19
2022-12-13T01:37:58.329Z,-2.33
2022-12-13T01:40:30.324Z,-2.39
2022-12-13T01:43:02.847Z,-2.41
2022-12-13T01:45:46.734Z,-2.48
2022-12-13T01:48:27.599Z,-2.48
2022-12-13T01:51:04.040Z,-2.45
2022-12-13T01:53:39.571Z,-2.53
2022-12-13T01:56:24.387Z,-2.51
2022-12-13T01:58:57.872Z,-2.50
2022-12-13T02:01:30.413Z,-2.48
2022-12-13T02:04:02.574Z,-2.46
2022-12-13T02:06:38.911Z,-2.51
2022-12-13T02:09:11.620Z,-2.59
2022-12-13T02:11:44.880Z,-2.63
2022-12-13T02:14:16.823Z,-2.66
2022-12-13T02:17:21.167Z,-2.76
2022-12-13T02:20:35.781Z,-2.79
2022-12-13T02:23:41.428Z,-2.78
2022-12-13T02:26:31.353Z,-2.77
2022-12-13T02:29:30.778Z,-2.76
2022-12-13T02:32:25.537Z,-2.79
2022-12-13T02:35:07.702Z,-2.80
2022-12-13T02:37:59.906Z,-2.79
2022-12-13T02:41:00.910Z,-2.76
2022-12-13T02:44:01.275Z,-2.75
2022-12-13T02:46:39.626Z,-2.76
2022-12-13T02:49:13.279Z,-2.81
2022-12-13T02:51:46.023Z,-2.88
2022-12-13T02:54:18.081Z,-2.84
2022-12-13T02:57:00.458Z,-2.92
2022-12-13T02:59:38.587Z,-3.06
2022-12-13T03:03:01.475Z,-3.12
2022-12-13T03:06:24.361Z,-3.17
2022-12-13T03:09:08.326Z,-3.13
2022-12-13T03:12:36.674Z,-3.06
2022-12-13T03:15:34.988Z,-3.00
2022-12-13T03:18:19.153Z,-2.94
2022-12-13T03:20:55.424Z,-2.92
2022-12-13T03:23:28.301Z,-2.91
2022-12-13T03:26:07.209Z,-2.93
2022-12-13T03:28:39.736Z,-2.96
2022-12-13T03:31:11.720Z,-2.99
2022-12-13T03:33:43.783Z,-3.06
2022-12-13T03:36:17.003Z,-3.10
2022-12-13T03:38:52.438Z,-3.17
2022-12-13T03:41:31.591Z,-3.20
2022-12-13T03:44:06.581Z,-3.20
2022-12-13T03:46:39.119Z,-3.13
2022-12-13T03:49:15.364Z,-3.12
2022-12-13T03:51:49.243Z,-3.09
2022-12-13T03:54:21.259Z,-3.13
2022-12-13T03:56:53.234Z,-3.10
2022-12-13T03:59:25.203Z,-3.10
2022-12-13T04:01:57.286Z,-3.07
2022-12-13T04:04:29.436Z,-3.05
2022-12-13T04:07:01.355Z,-3.08
2022-12-13T04:09:33.322Z,-3.12
2022-12-13T04:12:24.210Z,-3.14
2022-12-13T04:14:56.137Z,-3.12
2022-12-13T04:17:28.092Z,-3.08
2022-12-13T04:20:00.180Z,-3.11
2022-12-13T04:22:32.115Z,-3.10
2022-12-13T04:25:05.570Z,-3.14
2022-12-13T04:27:38.169Z,-3.18
2022-12-13T04:30:10.881Z,-3.22
2022-12-13T04:32:42.856Z,-3.23
2022-12-13T04:35:15.159Z,-3.28
2022-12-13T04:37:47.206Z,-3.26
2022-12-13T04:40:21.628Z,-3.27
2022-12-13T04:42:54.743Z,-3.27
2022-12-13T04:45:27.153Z,-3.23
2022-12-13T04:47:59.118Z,-3.23
2022-12-13T04:50:31.101Z,-3.21
2022-12-13T04:53:03.026Z,-3.09
2022-12-13T04:55:37.043Z,-3.07
2022-12-13T04:58:09.011Z,-3.01
2022-12-13T05:00:44.247Z,-2.93
2022-12-13T05:03:16.511Z,-2.85
2022-12-13T05:05:48.490Z,-2.75
2022-12-13T05:08:20.633Z,-2.70
2022-12-13T05:10:54.734Z,-2.77
2022-12-13T05:13:26.721Z,-2.84
2022-12-13T05:16:04.372Z,-2.80
2022-12-13T05:18:37.165Z,-2.77
2022-12-13T05:21:11.816Z,-2.69
2022-12-13T05:23:43.785Z,-2.63
2022-12-13T05:26:15.745Z,-2.67
2022-12-13T05:28:47.683Z,-2.74
2022-12-13T05:31:22.631Z,-2.88
2022-12-13T05:34:01.257Z,-2.93
2022-12-13T05:36:33.705Z,-2.95
2022-12-13T05:39:05.648Z,-2.95
2022-12-13T05:42:01.154Z,-2.91
2022-12-13T05:44:34.176Z,-2.95
2022-12-13T05:47:06.094Z,-2.80
2022-12-13T05:49:39.635Z,-2.75
2022-12-13T05:52:20.163Z,-2.65
2022-12-13T05:55:01.035Z,-2.67
2022-12-13T05:57:34.175Z,-2.76
2022-12-13T06:00:28.534Z,-2.80
2022-12-13T06:03:01.944Z,-2.69
2022-12-13T06:05:34.324Z,-2.60
2022-12-13T06:08:23.900Z,-2.71
2022-12-13T06:11:10.901Z,-2.62
2022-12-13T06:13:44.743Z,-2.65
2022-12-13T06:16:22.807Z,-2.65
2022-12-13T06:19:03.653Z,-2.59
2022-12-13T06:21:41.433Z,-2.52
2022-12-13T06:24:20.173Z,-2.44
2022-12-13T06:26:53.300Z,-2.32
2022-12-13T06:29:26.144Z,-2.42
2022-12-13T06:32:02.389Z,-2.46
2022-12-13T06:34:36.906Z,-2.40
2022-12-13T06:37:13.415Z,-2.33
2022-12-13T06:39:45.393Z,-2.30
2022-12-13T06:42:22.164Z,-2.19
2022-12-13T06:44:55.828Z,-2.15
2022-12-13T06:47:31.345Z,-2.10
2022-12-13T06:50:05.998Z,-2.05
2022-12-13T06:52:38.167Z,-2.03
2022-12-13T06:55:10.355Z,-1.99
2022-12-13T06:57:43.919Z,-1.96
2022-12-13T07:00:21.743Z,-1.97
2022-12-13T07:02:55.645Z,-1.96
2022-12-13T07:05:27.725Z,-1.94
2022-12-13T07:07:59.811Z,-1.87
2022-12-13T07:10:32.859Z,-1.83
2022-12-13T07:13:04.765Z,-1.75
2022-12-13T07:15:36.777Z,-1.74
2022-12-13T07:18:08.729Z,-1.74
2022-12-13T07:20:41.896Z,-1.73
2022-12-13T07:23:14.153Z,-1.70
2022-12-13T07:25:53.846Z,-1.66
2022-12-13T07:28:25.932Z,-1.79
2022-12-13T07:31:02.562Z,-1.83
2022-12-13T07:33:35.071Z,-1.78
2022-12-13T07:36:12.423Z,-1.75
2022-12-13T07:38:45.300Z,-1.81
2022-12-13T07:41:23.400Z,-1.86
2022-12-13T07:43:56.490Z,-1.94
2022-12-13T07:46:32.487Z,-1.90
2022-12-13T07:49:06.149Z,-1.84
2022-12-13T07:51:38.809Z,-1.80
2022-12-13T07:54:10.770Z,-1.80
2022-12-13T07:56:42.758Z,-1.84
2022-12-13T07:59:14.840Z,-1.87
2022-12-13T08:01:46.848Z,-1.84
2022-12-13T08:04:18.954Z,-2.06
2022-12-13T08:06:50.940Z,-2.15
2022-12-13T08:09:23.477Z,-2.10
2022-12-13T08:11:55.563Z,-2.23
2022-12-13T08:14:28.141Z,-2.10
2022-12-13T08:17:00.185Z,-2.10
2022-12-13T08:19:32.131Z,-2.15
2022-12-13T08:22:04.383Z,-2.07
2022-12-13T08:24:46.202Z,-1.97
2022-12-13T08:27:18.431Z,-2.19
2022-12-13T08:29:50.494Z,-2.09
2022-12-13T08:32:22.537Z,-2.06
2022-12-13T08:34:54.444Z,-2.01
2022-12-13T08:37:26.352Z,-1.99
2022-12-13T08:39:58.295Z,-1.91
2022-12-13T08:42:30.245Z,-1.80
2022-12-13T08:45:02.167Z,-1.76
2022-12-13T08:47:39.870Z,-1.90
2022-12-13T08:50:13.612Z,-2.06
2022-12-13T08:52:45.868Z,-2.11
2022-12-13T08:55:21.113Z,-2.02
2022-12-13T08:58:09.659Z,-2.25
2022-12-13T09:00:42.756Z,-2.27
2022-12-13T09:03:14.820Z,-2.26
2022-12-13T09:05:46.895Z,-2.18
2022-12-13T09:08:25.205Z,-2.09
2022-12-13T09:11:00.070Z,-2.08
2022-12-13T09:13:35.448Z,-2.10
2022-12-13T09:16:24.616Z,-2.25
2022-12-13T09:18:56.756Z,-2.14
2022-12-13T09:21:31.656Z,-1.95
2022-12-13T09:24:04.267Z,-1.82
2022-12-13T09:26:38.161Z,-1.80
2022-12-13T09:29:11.868Z,-1.86
2022-12-13T09:31:48.312Z,-1.85
2022-12-13T09:34:24.731Z,-1.82
2022-12-13T09:37:01.746Z,-1.74
2022-12-13T09:39:33.896Z,-1.76
2022-12-13T09:42:21.041Z,-1.87
2022-12-13T09:45:03.727Z,-1.77
2022-12-13T09:47:46.850Z,-1.60
2022-12-13T09:50:27.718Z,-1.78
2022-12-13T09:53:02.730Z,-1.73
2022-12-13T09:55:47.771Z,-1.62
2022-12-13T09:58:28.699Z,-1.63
2022-12-13T10:01:00.818Z,-1.67
2022-12-13T10:03:32.820Z,-1.54
2022-12-13T10:06:23.423Z,-1.33
2022-12-13T10:08:59.179Z,-1.29
2022-12-13T10:11:31.312Z,-1.27
2022-12-13T10:14:12.783Z,-1.13
2022-12-13T10:16:51.156Z,-1.29
2022-12-13T10:19:40.401Z,-1.36
2022-12-13T10:22:16.427Z,-1.19
2022-12-13T10:25:00.327Z,-1.03
2022-12-13T10:27:47.760Z,-0.93
2022-12-13T10:30:28.770Z,-0.87
2022-12-13T10:33:05.287Z,-0.86
2022-12-13T10:35:39.574Z,-0.97
2022-12-13T10:38:14.587Z,-0.80
2022-12-13T10:40:49.093Z,-1.19
2022-12-13T10:43:24.097Z,-1.01
2022-12-13T10:45:58.913Z,-0.78
2022-12-13T10:48:38.328Z,-0.71
2022-12-13T10:51:14.408Z,-0.59
2022-12-13T10:53:54.837Z,-0.71
2022-12-13T10:57:00.229Z,-0.51
2022-12-13T10:59:38.428Z,-0.50
2022-12-13T11:02:28.523Z,-0.45
2022-12-13T11:05:23.015Z,-0.45
2022-12-13T11:07:56.196Z,-0.51
2022-12-13T11:10:32.930Z,-0.49
2022-12-13T11:13:07.490Z,-0.25
2022-12-13T11:15:39.691Z,-0.10
2022-12-13T11:18:23.017Z,0.10
2022-12-13T11:21:00.773Z,0.19
2022-12-13T11:23:38.424Z,-0.04
2022-12-13T11:26:24.346Z,-0.03
2022-12-13T11:29:15.032Z,-0.05
2022-12-13T11:32:22.673Z,0.01
2022-12-13T11:35:26.296Z,0.01
2022-12-13T11:38:45.891Z,0.05
2022-12-13T11:41:39.617Z,-0.03
2022-12-13T11:44:34.574Z,-0.08
2022-12-13T11:47:24.864Z,0.06
2022-12-13T11:49:57.139Z,0.16
2022-12-13T11:52:47.008Z,0.15
2022-12-13T11:55:39.607Z,0.30
2022-12-13T11:59:01.277Z,0.36
2022-12-13T12:01:51.740Z,0.28
2022-12-13T12:04:50.081Z,0.30
2022-12-13T12:08:12.651Z,0.25
2022-12-13T12:10:49.832Z,0.15
2022-12-13T12:13:50.761Z,0.15
2022-12-13T12:16:35.197Z,0.26
2022-12-13T12:19:15.579Z,0.29
2022-12-13T12:22:19.148Z,0.32
2022-12-13T12:25:21.832Z,0.48
2022-12-13T12:28:26.757Z,0.55
2022-12-13T12:31:14.546Z,0.53
2022-12-13T12:34:16.675Z,0.30
2022-12-13T12:37:23.792Z,0.32
2022-12-13T12:40:05.987Z,0.26
2022-12-13T12:43:14.053Z,0.31
2022-12-13T12:45:57.604Z,0.37
2022-12-13T12:49:01.666Z,0.54
2022-12-13T12:52:22.295Z,0.67
2022-12-13T12:55:31.011Z,0.73
2022-12-13T12:58:17.833Z,0.70
2022-12-13T13:00:52.495Z,0.64
2022-12-13T13:03:31.680Z,0.69
2022-12-13T13:06:12.857Z,0.72
2022-12-13T13:08:59.227Z,0.80
2022-12-13T13:11:43.135Z,0.86
2022-12-13T13:14:36.548Z,0.91
2022-12-13T13:17:17.289Z,0.80
2022-12-13T13:20:18.404Z,0.78
2022-12-13T13:23:38.677Z,0.80
2022-12-13T13:28:47.953Z,0.91
2022-12-13T13:31:20.093Z,0.95
2022-12-13T13:33:52.422Z,0.94
2022-12-13T13:36:40.584Z,0.89
2022-12-13T13:40:00.039Z,0.77
2022-12-13T13:42:33.068Z,0.78
2022-12-13T13:45:27.042Z,0.73
2022-12-13T13:48:19.845Z,0.78
2022-12-13T13:51:49.342Z,0.73
2022-12-13T13:55:00.077Z,0.74
2022-12-13T13:58:26.469Z,0.77
2022-12-13T14:01:32.266Z,0.77
2022-12-13T14:04:43.882Z,0.71
2022-12-13T14:07:55.404Z,0.63
2022-12-13T14:11:09.096Z,0.56
2022-12-13T14:14:21.803Z,0.50
2022-12-13T14:17:50.608Z,0.45
2022-12-13T14:20:52.794Z,0.46
2022-12-13T14:23:59.033Z,0.48
2022-12-13T14:26:54.112Z,0.43
2022-12-13T14:29:33.059Z,0.41
2022-12-13T14:32:26.424Z,0.35
2022-12-13T14:35:26.249Z,0.39
2022-12-13T14:38:08.179Z,0.24
2022-12-13T14:40:52.178Z,0.18
2022-12-13T14:43:30.917Z,0.18
2022-12-13T14:46:07.295Z,0.17
2022-12-13T14:48:55.332Z,0.17
2022-12-13T14:51:38.542Z,0.18
2022-12-13T14:54:25.719Z,0.15
2022-12-13T14:57:04.710Z,0.11
2022-12-13T14:59:49.969Z,0.01
2022-12-13T15:02:31.224Z,-0.15
2022-12-13T15:05:06.076Z,-0.16
2022-12-13T15:07:42.391Z,-0.19
2022-12-13T15:10:40.296Z,-0.21
2022-12-13T15:13:59.752Z,-0.38
2022-12-13T15:16:31.800Z,-0.41
2022-12-13T15:19:30.816Z,-0.44
2022-12-13T15:22:07.668Z,-0.44
2022-12-13T15:24:41.917Z,-0.38
2022-12-13T15:27:20.522Z,-0.42
2022-12-13T15:29:54.342Z,-0.37
2022-12-13T15:32:26.522Z,-0.34
2022-12-13T15:35:15.883Z,-0.33
2022-12-13T15:37:48.155Z,-0.36
2022-12-13T15:40:20.349Z,-0.34
2022-12-13T15:42:52.543Z,-0.39
2022-12-13T15:45:33.163Z,-0.40
2022-12-13T15:48:27.924Z,-0.48
2022-12-13T15:51:29.124Z,-0.48
2022-12-13T15:54:19.321Z,-0.50
2022-12-13T15:57:17.597Z,-0.57
2022-12-13T16:00:30.180Z,-0.56
2022-12-13T16:03:19.209Z,-0.53
2022-12-13T16:05:56.755Z,-0.60
2022-12-13T16:08:32.144Z,-0.62
2022-12-13T16:11:05.851Z,-0.61
2022-12-13T16:13:38.827Z,-0.69
2022-12-13T16:16:28.299Z,-0.64
2022-12-13T16:19:01.280Z,-0.67
2022-12-13T16:21:33.340Z,-0.66
2022-12-13T16:24:05.679Z,-0.65
2022-12-13T16:26:37.748Z,-0.59
2022-12-13T16:29:14.860Z,-0.55
2022-12-13T16:31:47.479Z,-0.56
2022-12-13T16:34:19.799Z,-0.68
2022-12-13T16:36:59.818Z,-0.77
2022-12-13T16:39:32.924Z,-0.81
2022-12-13T16:42:05.082Z,-0.85
2022-12-13T16:44:38.870Z,-0.81
2022-12-13T16:47:20.579Z,-0.84
2022-12-13T16:50:10.379Z,-0.90
2022-12-13T16:52:42.469Z,-1.03
2022-12-13T16:55:14.613Z,-1.06
2022-12-13T16:58:00.093Z,-1.11
2022-12-13T17:00:32.159Z,-1.13
2022-12-13T17:03:05.717Z,-1.17
2022-12-13T17:05:37.699Z,-1.07
2022-12-13T17:08:16.235Z,-0.98
2022-12-13T17:10:48.163Z,-0.95
2022-12-13T17:13:30.278Z,-0.96
2022-12-13T17:16:05.766Z,-0.99
2022-12-13T17:18:37.770Z,-1.01
2022-12-13T17:21:11.150Z,-0.98
2022-12-13T17:23:43.539Z,-1.00
2022-12-13T17:26:15.531Z,-1.06
2022-12-13T17:28:47.526Z,-1.08
2022-12-13T17:31:20.407Z,-1.08
2022-12-13T17:33:52.794Z,-1.19
2022-12-13T17:36:26.912Z,-1.30
2022-12-13T17:38:59.191Z,-1.34
2022-12-13T17:41:31.226Z,-1.31
2022-12-13T17:44:03.213Z,-1.32
2022-12-13T17:46:35.223Z,-1.31
2022-12-13T17:49:07.190Z,-1.40
2022-12-13T17:51:39.237Z,-1.43
2022-12-13T17:54:12.155Z,-1.44
2022-12-13T17:56:44.192Z,-1.55
2022-12-13T17:59:17.536Z,-1.54
2022-12-13T18:01:50.764Z,-1.52
2022-12-13T18:04:23.527Z,-1.56
2022-12-13T18:06:56.615Z,-1.65
2022-12-13T18:09:28.755Z,-1.71
2022-12-13T18:12:00.716Z,-1.73
2022-12-13T18:14:32.684Z,-1.75
2022-12-13T18:17:05.310Z,-1.73
2022-12-13T18:19:37.256Z,-1.72
2022-12-13T18:22:09.469Z,-1.73
2022-12-13T18:24:41.413Z,-1.74
2022-12-13T18:27:13.366Z,-1.76
2022-12-13T18:29:58.401Z,-1.77
2022-12-13T18:32:33.423Z,-1.74
2022-12-13T18:35:06.152Z,-1.88
2022-12-13T18:37:38.329Z,-1.88
2022-12-13T18:40:10.927Z,-1.86
2022-12-13T18:42:42.938Z,-1.91
2022-12-13T18:45:14.881Z,-1.88
2022-12-13T18:47:47.180Z,-1.86
2022-12-13T18:50:19.633Z,-1.86
2022-12-13T18:52:52.189Z,-1.82
2022-12-13T18:55:24.835Z,-1.82
2022-12-13T18:57:57.065Z,-1.81
2022-12-13T19:00:29.938Z,-1.82
2022-12-13T19:03:02.079Z,-1.86
2022-12-13T19:05:34.091Z,-1.84
2022-12-13T19:08:06.144Z,-1.94
2022-12-13T19:10:38.422Z,-1.97
2022-12-13T19:13:11.039Z,-1.97
2022-12-13T19:15:43.156Z,-2.00
2022-12-13T19:18:15.339Z,-2.02
2022-12-13T19:20:53.709Z,-2.01
2022-12-13T19:23:26.230Z,-1.97
2022-12-13T19:25:58.527Z,-1.95
2022-12-13T19:28:30.583Z,-1.99
2022-12-13T19:31:11.409Z,-2.02
2022-12-13T19:33:44.040Z,-2.00
2022-12-13T19:36:16.234Z,-2.06
2022-12-13T19:38:48.346Z,-2.13
2022-12-13T19:41:20.768Z,-2.22
2022-12-13T19:43:53.682Z,-2.25
2022-12-13T19:46:25.865Z,-2.18
2022-12-13T19:48:57.871Z,-2.24
2022-12-13T19:51:34.417Z,-2.25
2022-12-13T19:54:10.765Z,-2.25
2022-12-13T19:56:42.866Z,-2.31
2022-12-13T19:59:14.994Z,-2.23
2022-12-13T20:01:47.067Z,-2.21
2022-12-13T20:04:20.419Z,-2.18
2022-12-13T20:06:52.536Z,-2.16
2022-12-13T20:09:24.885Z,-2.19
2022-12-13T20:11:57.110Z,-2.17
2022-12-13T20:14:29.604Z,-2.15
2022-12-13T20:17:01.666Z,-2.20
2022-12-13T20:19:33.756Z,-2.25
2022-12-13T20:22:06.238Z,-2.27
2022-12-13T20:24:38.449Z,-2.39
2022-12-13T20:27:10.630Z,-2.41
2022-12-13T20:29:42.755Z,-2.35
2022-12-13T20:32:21.450Z,-2.31
2022-12-13T20:34:55.133Z,-2.35
2022-12-13T20:37:27.658Z,-2.45
2022-12-13T20:40:00.464Z,-2.48
2022-12-13T20:42:33.580Z,-2.47
2022-12-13T20:45:06.512Z,-2.44
2022-12-13T20:47:38.711Z,-2.52
2022-12-13T20:50:11.079Z,-2.53
2022-12-13T20:52:47.707Z,-2.66
2022-12-13T20:55:22.779Z,-2.68
2022-12-13T20:57:54.755Z,-2.73
2022-12-13T21:00:27.000Z,-2.64
2022-12-13T21:02:59.191Z,-2.65
2022-12-13T21:05:31.165Z,-2.68
2022-12-13T21:08:21.621Z,-2.62
2022-12-13T21:11:03.441Z,-2.62
2022-12-13T21:13:37.148Z,-2.65
2022-12-13T21:16:09.242Z,-2.61
2022-12-13T21:18:41.511Z,-2.57
2022-12-13T21:21:13.622Z,-2.54
2022-12-13T21:23:45.653Z,-2.51
2022-12-13T21:26:18.393Z,-2.51
2022-12-13T21:28:55.859Z,-2.52
2022-12-13T21:31:29.483Z,-2.58
2022-12-13T21:34:02.755Z,-2.52
2022-12-13T21:36:41.217Z,-2.52
2022-12-13T21:39:23.015Z,-2.51
2022-12-13T21:41:55.741Z,-2.48
2022-12-13T21:44:28.507Z,-2.48
2022-12-13T21:47:15.845Z,-2.46
2022-12-13T21:49:48.442Z,-2.62
2022-12-13T21:52:20.884Z,-2.63
2022-12-13T21:55:03.411Z,-2.61
2022-12-13T21:58:07.783Z,-2.62
2022-12-13T22:00:39.993Z,-2.61
2022-12-13T22:03:12.303Z,-2.70
2022-12-13T22:05:44.738Z,-2.73
2022-12-13T22:08:16.699Z,-2.75
2022-12-13T22:11:15.108Z,-2.82
2022-12-13T22:13:50.015Z,-2.95
2022-12-13T22:16:22.111Z,-3.03
2022-12-13T22:18:55.725Z,-3.05
2022-12-13T22:21:27.774Z,-3.03
2022-12-13T22:23:59.772Z,-3.04
2022-12-13T22:26:31.755Z,-3.01
2022-12-13T22:29:04.153Z,-3.06
2022-12-13T22:31:36.189Z,-3.18
2022-12-13T22:34:09.136Z,-3.13
2022-12-13T22:36:41.194Z,-3.16
2022-12-13T22:39:18.642Z,-3.17
2022-12-13T22:41:52.246Z,-3.27
2022-12-13T22:44:24.280Z,-3.40
2022-12-13T22:46:56.283Z,-3.47
2022-12-13T22:49:28.294Z,-3.42
2022-12-13T22:52:00.354Z,-3.48
2022-12-13T22:54:32.309Z,-3.55
2022-12-13T22:57:04.628Z,-3.55
2022-12-13T22:59:36.682Z,-3.51
2022-12-13T23:02:09.995Z,-3.48
2022-12-13T23:04:42.200Z,-3.61
2022-12-13T23:07:14.181Z,-3.60
2022-12-13T23:09:46.255Z,-3.54
2022-12-13T23:12:37.138Z,-3.59
2022-12-13T23:15:10.234Z,-3.59
2022-12-13T23:17:42.236Z,-3.51
2022-12-13T23:20:14.258Z,-3.66
2022-12-13T23:22:46.400Z,-3.61
2022-12-13T23:25:18.370Z,-3.65
2022-12-13T23:27:50.300Z,-3.66
2022-12-13T23:30:22.200Z,-3.75
2022-12-13T23:32:55.964Z,-3.79
2022-12-13T23:35:27.931Z,-3.77
2022-12-13T23:37:59.890Z,-3.88
2022-12-13T23:40:31.841Z,-3.89
2022-12-13T23:43:03.948Z,-3.97
2022-12-13T23:45:35.861Z,-3.94
2022-12-13T23:48:07.806Z,-3.86
2022-12-13T23:50:39.719Z,-3.75
2022-12-13T23:53:11.688Z,-3.78
2022-12-13T23:55:43.688Z,-3.77
2022-12-13T23:58:22.632Z,-3.83
